Terminal Aerodrome Forecast
Issued by NWS Charleston, WV

Current Version | Previous Version | Graphics & Text | Print | Product List | Glossary On
Versions: 1 2 3 4 5 6 7 8 9 10 11 12 13 14 15 16 17 18 19 20 21
677
FTUS41 KRLX 152323
TAFBKW
TAF
KBKW 152323Z 1600/1624 34005KT P6SM FEW035 SCT250
     FM160600 00000KT 2SM BR SCT001
     FM160700 00000KT 1/2SM FG VV001
     FM161230 00000KT 4SM BR SCT002
     FM161300 VRB03KT P6SM SCT045=

USA.gov is the U.S. government's official web portal to all federal, state and local government web resources and services.